Time;durP1;ratioP1;P1;durP2;ratioP2;P2;SDS_P1;SDS_P2;PMS_P1;PMS_P2;Temp;Humidity;BMP_temperature;BMP_pressure;BME280_temperature;BME280_humidity;BME280_pressure;Samples;Min_cycle;Max_cycle;Signal;HPM_P1;HPM_P2
2024/04/09 00:02:19;;;;;;;9.70;7.40;;;;;;;15.18;72.32;99785.71;131161;1260;106594;-81
2024/04/09 00:05:31;;;;;;;10.30;6.30;;;;;;;15.13;72.51;99785.25;131259;1256;106741;-81
2024/04/09 00:08:35;;;;;;;;;;;;;;;15.07;72.28;99788.16;131282;1256;107571;-81
2024/04/09 00:11:43;;;;;;;9.40;6.50;;;;;;;15.04;72.63;99786.96;131257;1254;108504;-82
2024/04/09 00:14:49;;;;;;;8.90;6.30;;;;;;;15.03;72.84;99783.15;131311;1257;108568;-81
2024/04/09 00:17:55;;;;;;;8.80;7.00;;;;;;;15.01;72.61;99777.64;131264;1251;107722;-82
2024/04/09 00:21:01;;;;;;;9.70;6.90;;;;;;;15.01;72.65;99773.75;131244;1256;106620;-82
2024/04/09 00:24:08;;;;;;;10.50;6.70;;;;;;;14.97;72.63;99773.52;131284;1256;108467;-82
2024/04/09 00:27:13;;;;;;;10.70;7.10;;;;;;;14.92;72.75;99764.88;131331;1261;106721;-81
2024/04/09 00:30:19;;;;;;;10.70;7.80;;;;;;;14.87;72.65;99767.43;131412;1261;108435;-81
2024/04/09 00:33:25;;;;;;;9.70;7.50;;;;;;;14.82;72.93;99763.75;131407;1251;107839;-81
2024/04/09 00:36:33;;;;;;;9.60;7.30;;;;;;;14.77;72.78;99764.00;131324;1257;108389;-81
2024/04/09 00:39:39;;;;;;;10.40;6.60;;;;;;;14.72;72.91;99767.58;131164;1257;108500;-82
2024/04/09 00:42:49;;;;;;;9.30;6.80;;;;;;;14.65;73.00;99767.92;131152;1255;108496;-82
2024/04/09 00:45:55;;;;;;;12.20;6.90;;;;;;;14.59;73.26;99771.09;131165;1256;106666;-81
2024/04/09 00:49:01;;;;;;;9.80;6.70;;;;;;;14.55;73.44;99769.79;131185;1257;107665;-81
2024/04/09 00:52:07;;;;;;;8.70;6.70;;;;;;;14.53;73.51;99769.30;131207;1251;107633;-81
2024/04/09 00:55:14;;;;;;;8.90;7.20;;;;;;;14.52;73.55;99763.46;131191;1264;108609;-81
2024/04/09 00:58:21;;;;;;;10.10;7.60;;;;;;;14.51;73.36;99769.29;131240;1264;106674;-82
2024/04/09 01:01:26;;;;;;;9.70;7.60;;;;;;;14.48;73.56;99762.44;131286;1257;107328;-82
2024/04/09 01:04:32;;;;;;;10.50;7.60;;;;;;;14.44;73.88;99759.84;131209;1251;107662;-81
2024/04/09 01:07:38;;;;;;;10.90;7.40;;;;;;;14.39;73.93;99757.43;131105;1264;106809;-81
2024/04/09 01:10:43;;;;;;;12.00;7.40;;;;;;;14.34;74.00;99752.84;131198;1255;107746;-82
2024/04/09 01:13:50;;;;;;;9.40;7.00;;;;;;;14.28;73.95;99753.96;131144;1255;108569;-81
2024/04/09 01:16:55;;;;;;;12.20;7.00;;;;;;;14.25;74.04;99754.31;131169;1255;106703;-82
2024/04/09 01:20:00;;;;;;;8.30;6.70;;;;;;;14.25;74.09;99757.09;131303;1257;107648;-81
2024/04/09 01:23:06;;;;;;;8.90;7.10;;;;;;;14.25;73.88;99756.73;131290;1257;109128;-82
2024/04/09 01:26:14;;;;;;;9.60;7.00;;;;;;;14.22;73.91;99764.05;131297;1255;107807;-81
2024/04/09 01:29:21;;;;;;;9.80;7.40;;;;;;;14.21;74.16;99763.13;131133;1250;107355;-82
2024/04/09 01:32:26;;;;;;;10.30;7.80;;;;;;;14.20;74.00;99762.88;130992;1251;217675;-81
2024/04/09 01:35:32;;;;;;;10.30;7.50;;;;;;;14.17;74.15;99763.21;131136;1251;107317;-81
2024/04/09 01:38:37;;;;;;;14.30;7.70;;;;;;;14.13;74.25;99766.14;131139;1251;108862;-81
2024/04/09 01:41:43;;;;;;;10.70;7.20;;;;;;;14.08;74.23;99771.15;131253;1254;108039;-81
2024/04/09 01:44:48;;;;;;;10.50;8.10;;;;;;;14.02;74.32;99766.42;131169;1254;106598;-81
2024/04/09 01:47:53;;;;;;;9.80;7.20;;;;;;;13.97;74.43;99766.23;131192;1251;106550;-81
2024/04/09 01:50:59;;;;;;;10.10;7.30;;;;;;;13.93;74.42;99764.36;131418;1254;106914;-81
2024/04/09 01:54:05;;;;;;;11.70;7.90;;;;;;;13.92;74.50;99766.21;131294;1251;107098;-81
2024/04/09 01:57:10;;;;;;;8.60;7.40;;;;;;;13.92;74.34;99763.08;131218;1251;108386;-81
2024/04/09 02:00:19;;;;;;;8.40;6.80;;;;;;;13.91;74.51;99760.67;131180;1254;107113;-81
2024/04/09 02:03:26;;;;;;;10.90;7.60;;;;;;;13.89;74.59;99762.30;131298;1254;107506;-81
2024/04/09 02:06:31;;;;;;;9.60;7.70;;;;;;;13.87;74.59;99766.42;131286;1255;108440;-81
2024/04/09 02:09:36;;;;;;;9.50;7.40;;;;;;;13.84;74.81;99765.29;131316;1251;108344;-81
2024/04/09 02:12:42;;;;;;;9.70;7.20;;;;;;;13.80;74.83;99765.77;131300;1254;106579;-81
2024/04/09 02:15:48;;;;;;;9.50;7.00;;;;;;;13.73;75.03;99765.96;131320;1254;107777;-81
2024/04/09 02:18:53;;;;;;;7.40;6.30;;;;;;;13.69;75.08;99769.14;131276;1254;106304;-81
2024/04/09 02:21:58;;;;;;;9.80;7.40;;;;;;;13.66;75.31;99774.33;131350;1264;106692;-81
2024/04/09 02:25:04;;;;;;;8.20;7.10;;;;;;;13.68;75.30;99766.30;131263;1254;107051;-81
2024/04/09 02:28:10;;;;;;;10.10;7.20;;;;;;;13.68;75.30;99767.64;131317;1254;108361;-81
2024/04/09 02:31:15;;;;;;;8.50;7.00;;;;;;;13.69;75.28;99769.05;131272;1257;108194;-82
2024/04/09 02:34:23;;;;;;;9.70;7.40;;;;;;;13.67;75.21;99773.85;131224;1251;108535;-81
2024/04/09 02:37:29;;;;;;;11.10;7.70;;;;;;;13.64;75.47;99775.13;131203;1255;106670;-81
2024/04/09 02:40:34;;;;;;;8.90;7.60;;;;;;;13.61;75.56;99773.34;131230;1251;107865;-81
2024/04/09 02:43:39;;;;;;;15.00;7.90;;;;;;;13.58;75.52;99776.57;131307;1251;107645;-81
2024/04/09 02:46:45;;;;;;;11.50;7.80;;;;;;;13.54;75.65;99772.30;131134;1251;109145;-81
2024/04/09 02:49:52;;;;;;;10.30;7.00;;;;;;;13.50;75.82;99773.80;131199;1251;106695;-81
2024/04/09 02:52:57;;;;;;;9.10;6.80;;;;;;;13.46;75.75;99775.48;131170;1251;107310;-82
2024/04/09 02:56:04;;;;;;;8.50;7.10;;;;;;;13.47;76.04;99775.00;131301;1254;108663;-81
2024/04/09 02:59:11;;;;;;;9.40;7.30;;;;;;;13.48;75.96;99776.34;131148;1254;109209;-81
2024/04/09 03:02:17;;;;;;;9.70;7.40;;;;;;;13.49;75.95;99779.60;131229;1254;107634;-81
2024/04/09 03:05:30;;;;;;;9.30;7.10;;;;;;;13.48;75.97;99778.48;131327;1251;108898;-81
2024/04/09 03:08:36;;;;;;;8.90;7.00;;;;;;;13.45;76.03;99781.54;131257;1254;107554;-82
2024/04/09 03:11:42;;;;;;;9.70;8.00;;;;;;;13.41;76.00;99781.10;131275;1254;107168;-81
2024/04/09 03:14:50;;;;;;;8.70;7.40;;;;;;;13.36;76.06;99787.23;131082;1254;107737;-81
2024/04/09 03:17:56;;;;;;;8.20;6.60;;;;;;;13.32;76.15;99785.00;131093;1255;108684;-81
2024/04/09 03:21:01;;;;;;;9.10;7.00;;;;;;;13.30;76.21;99786.90;131206;1254;107665;-81
2024/04/09 03:24:08;;;;;;;9.70;7.40;;;;;;;13.30;76.36;99783.52;131286;1254;108600;-81
2024/04/09 03:27:13;;;;;;;9.20;7.70;;;;;;;13.28;76.23;99782.73;131242;1254;108708;-81
2024/04/09 03:30:19;;;;;;;9.60;7.70;;;;;;;13.29;76.44;99781.45;131187;1254;107640;-81
2024/04/09 03:33:24;;;;;;;8.90;7.90;;;;;;;13.28;76.42;99782.44;131294;1254;108734;-81
2024/04/09 03:36:29;;;;;;;11.40;8.60;;;;;;;13.27;76.69;99780.48;131293;1251;108808;-81
2024/04/09 03:39:35;;;;;;;11.90;7.70;;;;;;;13.25;76.74;99778.71;131588;1254;106950;-81
2024/04/09 03:42:40;;;;;;;10.50;8.00;;;;;;;13.22;76.78;99782.75;131280;1254;108445;-82
2024/04/09 03:45:45;;;;;;;9.40;7.20;;;;;;;13.18;76.74;99778.27;131190;1254;108391;-82
2024/04/09 03:49:05;;;;;;;10.00;7.90;;;;;;;13.17;76.86;99779.45;131242;1251;107836;-82
2024/04/09 03:52:11;;;;;;;10.70;7.70;;;;;;;13.18;76.78;99777.00;131227;1254;107456;-82
2024/04/09 03:55:16;;;;;;;11.20;7.40;;;;;;;13.19;76.90;99778.90;131396;1250;106383;-81
2024/04/09 03:58:21;;;;;;;10.00;8.20;;;;;;;13.21;76.88;99782.96;131272;1251;108531;-81
2024/04/09 04:01:26;;;;;;;10.60;7.50;;;;;;;13.21;76.77;99779.73;133278;1251;107511;-82
2024/04/09 04:04:32;;;;;;;9.30;8.30;;;;;;;13.22;76.95;99783.54;131284;1250;107586;-82
2024/04/09 04:07:37;;;;;;;9.00;7.60;;;;;;;13.21;76.92;99780.46;133317;1250;106564;-79
2024/04/09 04:10:42;;;;;;;9.50;7.20;;;;;;;13.20;76.96;99782.27;133386;1250;106585;-78
2024/04/09 04:13:47;;;;;;;9.30;7.60;;;;;;;13.21;77.04;99780.42;131467;1254;108794;-78
2024/04/09 04:16:53;;;;;;;9.70;7.30;;;;;;;13.23;77.23;99778.20;131293;1254;106488;-78
2024/04/09 04:19:58;;;;;;;10.70;7.60;;;;;;;13.26;77.12;99778.73;131065;1251;108531;-80
2024/04/09 04:23:04;;;;;;;10.10;7.60;;;;;;;13.29;77.17;99774.50;131008;1254;106314;-81
2024/04/09 04:26:13;;;;;;;9.60;7.80;;;;;;;13.33;77.38;99777.35;131364;1254;107526;-81
2024/04/09 04:29:18;;;;;;;10.10;8.20;;;;;;;13.41;77.27;99772.97;131146;1250;107748;-81
2024/04/09 04:32:23;;;;;;;9.20;8.00;;;;;;;13.45;77.53;99772.86;131167;1252;107818;-80
2024/04/09 04:35:29;;;;;;;10.00;8.30;;;;;;;13.48;77.51;99776.95;131343;1254;106577;-82
2024/04/09 04:38:35;;;;;;;11.80;9.30;;;;;;;13.52;77.62;99776.40;131161;1254;106656;-81
2024/04/09 04:41:40;;;;;;;9.90;7.80;;;;;;;13.57;77.62;99778.89;131148;1256;107888;-82
2024/04/09 04:44:46;;;;;;;10.20;7.50;;;;;;;13.64;77.71;99776.27;131243;1252;106833;-82
2024/04/09 04:47:51;;;;;;;9.80;7.60;;;;;;;13.73;77.85;99770.91;131652;1253;108549;-85
2024/04/09 04:50:57;;;;;;;8.80;7.10;;;;;;;13.85;78.02;99773.91;132052;1250;106626;-83
2024/04/09 04:54:03;;;;;;;10.00;7.90;;;;;;;13.98;77.77;99773.24;131894;1251;108437;-83
2024/04/09 04:57:08;;;;;;;8.50;6.70;;;;;;;14.10;77.76;99772.63;131836;1251;108896;-83
2024/04/09 05:00:14;;;;;;;9.80;7.50;;;;;;;14.22;77.72;99770.64;131885;1250;108390;-83
2024/04/09 05:03:19;;;;;;;8.50;6.90;;;;;;;14.36;78.13;99770.36;135216;1250;107814;-85
2024/04/09 05:06:25;;;;;;;8.70;6.90;;;;;;;14.49;77.95;99761.68;132395;1254;107264;-82
2024/04/09 05:09:31;;;;;;;8.80;6.30;;;;;;;14.64;78.01;99767.23;131083;1254;108407;-82
2024/04/09 05:12:36;;;;;;;9.20;6.90;;;;;;;14.83;78.11;99763.09;131009;1264;106712;-84
2024/04/09 05:15:41;;;;;;;8.70;7.50;;;;;;;15.03;77.97;99763.44;131001;1258;106570;-83
2024/04/09 05:18:47;;;;;;;7.80;6.50;;;;;;;15.22;77.65;99764.31;131003;1254;107820;-82
2024/04/09 05:21:52;;;;;;;11.40;6.70;;;;;;;15.35;77.55;99761.36;131215;1251;107748;-83
2024/04/09 05:24:58;;;;;;;7.40;6.50;;;;;;;15.45;77.48;99762.18;131143;1250;106560;-85
2024/04/09 05:28:03;;;;;;;8.60;6.70;;;;;;;15.54;77.55;99762.52;131124;1261;107539;-83
2024/04/09 05:31:08;;;;;;;7.40;6.50;;;;;;;15.60;77.36;99765.36;131067;1250;107261;-81
2024/04/09 05:34:13;;;;;;;7.30;6.10;;;;;;;15.66;77.19;99763.63;131091;1250;109610;-82
2024/04/09 05:37:19;;;;;;;9.70;6.20;;;;;;;15.73;77.22;99760.65;131059;1250;106825;-82
2024/04/09 05:40:24;;;;;;;7.80;6.10;;;;;;;15.80;77.24;99763.84;131014;1250;108576;-82
2024/04/09 05:43:29;;;;;;;10.10;6.70;;;;;;;15.92;77.11;99763.86;131036;1253;106383;-82
2024/04/09 05:46:35;;;;;;;8.10;6.80;;;;;;;16.06;76.94;99768.06;131038;1250;109423;-83
2024/04/09 05:49:40;;;;;;;9.80;6.70;;;;;;;16.18;76.53;99764.10;131052;1253;106777;-82
2024/04/09 05:52:46;;;;;;;7.10;6.00;;;;;;;16.32;76.54;99766.83;131034;1254;107681;-82
2024/04/09 05:55:57;;;;;;;8.50;6.00;;;;;;;16.43;76.21;99766.89;131220;1254;106952;-81
2024/04/09 05:59:03;;;;;;;8.10;5.50;;;;;;;16.55;76.14;99769.13;130996;1255;107856;-82
2024/04/09 06:02:08;;;;;;;7.60;5.60;;;;;;;16.66;75.85;99768.85;131220;1254;106329;-81
2024/04/09 06:05:15;;;;;;;9.90;5.40;;;;;;;16.78;75.51;99770.58;130984;1254;108747;-83
2024/04/09 06:08:21;;;;;;;9.50;5.50;;;;;;;16.90;75.24;99772.95;131080;1251;108348;-82
2024/04/09 06:11:27;;;;;;;8.40;5.10;;;;;;;17.02;75.37;99764.65;130945;1254;108165;-82
2024/04/09 06:14:32;;;;;;;8.30;5.60;;;;;;;17.13;74.67;99768.39;131088;1254;108626;-82
2024/04/09 06:17:37;;;;;;;7.50;5.40;;;;;;;17.25;74.66;99765.14;131083;1254;106785;-83
2024/04/09 06:20:43;;;;;;;7.50;5.30;;;;;;;17.38;74.52;99765.54;131068;1254;107173;-83
2024/04/09 06:23:48;;;;;;;8.90;5.50;;;;;;;17.52;74.26;99763.70;131204;1251;107810;-82
2024/04/09 06:26:53;;;;;;;8.40;5.40;;;;;;;17.66;74.19;99760.25;130983;1254;107009;-83
2024/04/09 06:29:59;;;;;;;6.70;4.80;;;;;;;17.79;73.72;99763.88;131145;1254;106805;-82
2024/04/09 06:33:05;;;;;;;6.40;4.80;;;;;;;17.90;73.81;99764.37;131060;1254;107754;-82
2024/04/09 06:36:10;;;;;;;6.90;4.70;;;;;;;18.02;73.59;99762.38;130933;1254;107303;-83
2024/04/09 06:39:16;;;;;;;5.40;4.50;;;;;;;18.12;73.43;99764.45;131032;1257;106933;-80
2024/04/09 06:42:21;;;;;;;7.10;4.90;;;;;;;18.19;72.72;99763.46;130933;1251;107656;-81
2024/04/09 06:45:26;;;;;;;6.20;4.00;;;;;;;18.29;72.60;99759.52;130949;1254;107653;-81
2024/04/09 06:48:32;;;;;;;5.10;4.30;;;;;;;18.40;72.42;99760.86;131376;1254;107021;-83
2024/04/09 06:51:38;;;;;;;7.70;4.00;;;;;;;18.50;71.93;99763.25;131080;1254;107548;-85
2024/04/09 06:54:43;;;;;;;6.70;4.00;;;;;;;18.60;71.40;99761.78;131127;1250;106672;-84
2024/04/09 06:57:49;;;;;;;6.30;3.90;;;;;;;18.70;71.19;99760.75;131079;1254;107680;-84
2024/04/09 07:00:54;;;;;;;5.90;3.90;;;;;;;18.81;71.15;99763.02;131167;1254;105468;-84
2024/04/09 07:04:00;;;;;;;5.40;3.60;;;;;;;18.90;70.88;99766.17;131174;1254;107295;-82
2024/04/09 07:07:06;;;;;;;5.90;3.80;;;;;;;19.00;70.54;99768.67;131123;1256;107652;-82
2024/04/09 07:10:13;;;;;;;5.50;3.70;;;;;;;19.09;70.18;99765.05;131265;1254;107922;-80
2024/04/09 07:13:18;;;;;;;6.40;3.50;;;;;;;19.19;70.09;99766.64;131030;1254;108570;-81
2024/04/09 07:16:23;;;;;;;7.20;3.40;;;;;;;19.31;69.83;99764.08;131041;1250;107854;-82
2024/04/09 07:19:28;;;;;;;5.00;3.60;;;;;;;19.39;69.78;99760.77;131088;1264;106243;-82
2024/04/09 07:22:33;;;;;;;5.40;3.40;;;;;;;19.47;69.37;99764.13;131021;1257;108479;-82
2024/04/09 07:25:41;;;;;;;5.10;3.70;;;;;;;19.54;69.23;99763.31;130951;1254;107767;-82
2024/04/09 07:28:47;;;;;;;5.10;3.60;;;;;;;19.58;68.63;99763.92;131075;1257;106309;-82
2024/04/09 07:31:52;;;;;;;4.00;3.10;;;;;;;19.63;68.28;99762.73;131220;1253;107589;-83
2024/04/09 07:34:58;;;;;;;6.50;3.30;;;;;;;19.68;67.97;99756.55;131053;1251;106664;-82
2024/04/09 07:38:03;;;;;;;4.70;3.40;;;;;;;19.76;68.12;99758.86;130999;1254;107773;-82
2024/04/09 07:41:09;;;;;;;5.80;3.20;;;;;;;19.88;67.72;99764.10;131009;1253;107872;-81
2024/04/09 07:44:14;;;;;;;4.90;3.50;;;;;;;19.99;67.50;99762.94;131425;1251;108256;-83
2024/04/09 07:47:20;;;;;;;5.10;3.30;;;;;;;20.08;67.04;99760.07;131054;1254;107714;-83
2024/04/09 07:50:26;;;;;;;5.50;3.40;;;;;;;20.17;66.53;99759.34;131268;1254;107684;-82
2024/04/09 07:53:32;;;;;;;5.10;3.10;;;;;;;20.27;66.19;99761.98;131230;1257;108596;-79
2024/04/09 07:56:38;;;;;;;3.60;2.60;;;;;;;20.36;66.04;99756.49;130946;1250;109308;-80
2024/04/09 07:59:43;;;;;;;5.40;2.90;;;;;;;20.47;65.94;99754.89;131128;1253;107753;-79
2024/04/09 08:02:49;;;;;;;3.60;2.60;;;;;;;20.58;65.32;99755.35;131288;1253;106937;-77
2024/04/09 08:05:54;;;;;;;5.10;2.70;;;;;;;20.68;65.01;99754.93;131004;1253;107858;-77
2024/04/09 08:08:59;;;;;;;4.40;2.70;;;;;;;20.79;64.50;99752.98;131101;1254;107743;-78
2024/04/09 08:12:05;;;;;;;4.20;2.80;;;;;;;20.90;64.24;99757.05;130972;1254;106398;-80
2024/04/09 08:15:11;;;;;;;5.40;2.90;;;;;;;21.01;64.30;99756.17;130961;1258;106756;-79
2024/04/09 08:18:16;;;;;;;3.40;2.80;;;;;;;21.12;63.89;99756.02;131103;1250;107445;-79
2024/04/09 08:21:21;;;;;;;3.50;2.70;;;;;;;21.24;63.33;99752.16;130964;1251;106415;-81
2024/04/09 08:24:26;;;;;;;4.50;2.40;;;;;;;21.34;63.18;99751.52;131108;1254;106785;-79
2024/04/09 08:27:34;;;;;;;4.70;2.40;;;;;;;21.43;62.38;99748.81;131250;1254;108778;-79
2024/04/09 08:30:40;;;;;;;3.50;2.40;;;;;;;21.54;62.32;99746.58;131208;1254;108540;-80
2024/04/09 08:33:45;;;;;;;4.30;2.40;;;;;;;21.65;61.87;99748.51;131316;1264;107357;-78
2024/04/09 08:36:51;;;;;;;3.80;2.10;;;;;;;21.73;60.65;99743.09;130925;1254;107562;-78
2024/04/09 08:39:57;;;;;;;3.10;2.00;;;;;;;21.82;61.19;99743.70;131039;1254;107708;-79
2024/04/09 08:43:03;;;;;;;3.10;2.10;;;;;;;21.94;60.52;99744.59;131066;1254;107941;-78
2024/04/09 08:46:11;;;;;;;2.70;1.90;;;;;;;22.04;59.84;99744.85;131035;1256;109289;-78
2024/04/09 08:49:17;;;;;;;2.90;2.00;;;;;;;22.13;59.20;99736.17;131027;1250;108462;-80
2024/04/09 08:52:25;;;;;;;5.20;2.20;;;;;;;22.25;59.17;99735.02;131009;1256;106957;-81
2024/04/09 08:55:33;;;;;;;2.70;2.00;;;;;;;22.36;58.74;99731.27;131113;1254;108648;-80
2024/04/09 08:58:38;;;;;;;5.50;1.90;;;;;;;22.47;58.65;99731.47;131086;1254;106859;-81
2024/04/09 09:01:43;;;;;;;2.50;2.00;;;;;;;22.61;58.73;99729.70;131092;1253;108790;-82
2024/04/09 09:04:49;;;;;;;3.70;2.00;;;;;;;22.73;57.75;99724.41;131134;1254;108280;-80
2024/04/09 09:08:05;;;;;;;4.50;2.10;;;;;;;22.82;57.51;99723.41;131048;1255;108390;-79
2024/04/09 09:11:11;;;;;;;3.10;2.00;;;;;;;22.93;57.22;99726.58;131210;1251;107664;-78
2024/04/09 09:14:16;;;;;;;5.30;1.80;;;;;;;23.02;57.22;99726.76;131033;1254;106894;-80
2024/04/09 09:17:22;;;;;;;2.90;2.00;;;;;;;23.10;56.67;99726.13;130950;1251;108396;-80
2024/04/09 09:20:27;;;;;;;4.50;2.00;;;;;;;23.18;56.51;99718.02;131132;1253;107628;-79
2024/04/09 09:23:34;;;;;;;3.00;1.80;;;;;;;23.27;55.72;99718.42;130916;1255;108829;-81
2024/04/09 09:26:39;;;;;;;2.60;1.70;;;;;;;23.35;55.34;99721.86;130918;1255;108408;-80
2024/04/09 09:29:46;;;;;;;4.60;1.90;;;;;;;23.41;54.54;99717.86;131216;1254;108688;-80
2024/04/09 09:32:53;;;;;;;3.50;1.90;;;;;;;23.47;54.74;99713.76;131083;1256;107079;-80
2024/04/09 09:35:59;;;;;;;4.80;1.70;;;;;;;23.51;53.92;99714.45;131079;1253;107744;-80
2024/04/09 09:39:04;;;;;;;2.50;1.80;;;;;;;23.59;53.62;99713.26;131244;1251;108064;-80
2024/04/09 09:42:12;;;;;;;2.50;2.00;;;;;;;23.65;53.26;99705.82;131091;1250;106032;-81
2024/04/09 09:45:20;;;;;;;4.10;1.80;;;;;;;23.74;53.44;99704.30;131244;1255;106055;-78
2024/04/09 09:48:26;;;;;;;4.30;1.90;;;;;;;23.82;52.65;99703.23;130841;1251;108170;-80
2024/04/09 09:51:32;;;;;;;2.80;1.80;;;;;;;23.87;52.44;99700.78;131003;1254;107762;-83
2024/04/09 09:54:37;;;;;;;2.60;1.70;;;;;;;23.90;52.07;99700.98;131005;1255;108823;-79
2024/04/09 09:57:47;;;;;;;3.40;1.70;;;;;;;23.96;51.71;99697.83;130963;1254;107683;-80
2024/04/09 10:00:54;;;;;;;3.80;1.90;;;;;;;24.02;52.31;99697.23;131097;1256;107666;-80
2024/04/09 10:03:59;;;;;;;1.90;1.60;;;;;;;24.08;51.77;99694.58;130984;1250;107601;-79
2024/04/09 10:07:06;;;;;;;3.20;1.70;;;;;;;24.14;51.69;99692.68;130962;1254;107628;-79
2024/04/09 10:10:11;;;;;;;3.70;1.70;;;;;;;24.20;50.86;99686.64;130911;1250;108815;-80
2024/04/09 10:13:21;;;;;;;3.40;1.50;;;;;;;24.26;50.59;99691.28;131671;1253;106906;-80
2024/04/09 10:16:27;;;;;;;4.70;1.90;;;;;;;24.32;49.75;99692.70;131403;1250;106799;-82
2024/04/09 10:19:36;;;;;;;1.80;1.60;;;;;;;24.40;48.93;99692.73;131431;1254;107839;-80
2024/04/09 10:22:45;;;;;;;4.00;1.70;;;;;;;24.43;48.35;99694.51;130927;1250;107761;-82
2024/04/09 10:25:51;;;;;;;3.40;1.90;;;;;;;24.46;48.38;99689.01;131254;1254;108776;-81
2024/04/09 10:29:05;;;;;;;4.70;1.50;;;;;;;24.48;47.78;99686.86;131249;1251;107116;-82
2024/04/09 10:32:18;;;;;;;3.40;1.60;;;;;;;24.55;48.28;99681.66;131201;1251;106602;-83
2024/04/09 10:35:24;;;;;;;2.50;1.70;;;;;;;24.61;47.88;99681.11;131113;1253;107610;-81
2024/04/09 10:38:30;;;;;;;2.80;1.70;;;;;;;24.70;47.10;99680.58;131240;1254;107708;-82
2024/04/09 10:41:41;;;;;;;4.40;1.70;;;;;;;24.77;47.28;99678.00;131156;1254;106705;-83
2024/04/09 10:44:48;;;;;;;2.90;1.80;;;;;;;24.82;46.87;99672.77;130941;1254;107441;-82
2024/04/09 10:47:54;;;;;;;4.90;1.80;;;;;;;24.88;46.92;99670.85;130885;1254;108390;-82
2024/04/09 10:51:00;;;;;;;3.00;1.50;;;;;;;24.97;46.99;99665.23;130876;1251;108618;-81
2024/04/09 10:54:05;;;;;;;4.00;1.70;;;;;;;25.08;46.65;99660.27;131069;1256;107704;-80
2024/04/09 10:57:15;;;;;;;3.20;1.90;;;;;;;25.17;46.45;99663.61;130882;1258;108826;-86
2024/04/09 11:00:22;;;;;;;3.20;1.70;;;;;;;25.28;46.60;99659.48;131030;1250;107783;-82
2024/04/09 11:03:30;;;;;;;4.40;1.80;;;;;;;25.36;46.68;99653.69;131291;1254;108605;-81
2024/04/09 11:06:38;;;;;;;3.30;1.60;;;;;;;25.41;46.00;99652.56;131004;1254;107231;-82
2024/04/09 11:09:44;;;;;;;2.40;1.60;;;;;;;25.46;45.79;99651.95;131153;1250;108636;-84
2024/04/09 11:12:52;;;;;;;3.00;1.60;;;;;;;25.50;45.70;99650.27;131081;1250;107413;-81
2024/04/09 11:15:58;;;;;;;2.60;1.70;;;;;;;25.52;45.03;99644.96;131090;1250;108281;-80
2024/04/09 11:19:03;;;;;;;2.50;1.60;;;;;;;25.52;45.21;99641.58;130999;1256;108630;-81
2024/04/09 11:22:11;;;;;;;2.30;1.60;;;;;;;25.58;45.18;99634.84;131068;1253;107103;-82
2024/04/09 11:25:19;;;;;;;3.00;1.80;;;;;;;25.64;44.76;99634.90;131101;1254;108201;-79
2024/04/09 11:28:24;;;;;;;2.10;1.60;;;;;;;25.69;44.81;99626.39;130925;1254;108749;-82
2024/04/09 11:31:30;;;;;;;3.20;1.70;;;;;;;25.72;44.72;99622.41;130976;1254;106761;-82
2024/04/09 11:34:36;;;;;;;2.60;1.80;;;;;;;25.77;44.22;99610.66;131009;1255;108281;-82
2024/04/09 11:37:51;;;;;;;2.50;1.70;;;;;;;25.83;44.13;99613.91;131138;1251;108361;-83
2024/04/09 11:40:57;;;;;;;3.00;1.70;;;;;;;25.87;44.20;99606.55;131334;1253;107737;-81
2024/04/09 11:44:02;;;;;;;3.30;1.80;;;;;;;25.88;43.84;99604.36;131131;1251;108658;-79
2024/04/09 11:47:08;;;;;;;2.40;1.80;;;;;;;25.88;43.58;99602.94;131259;1254;107792;-81
2024/04/09 11:50:13;;;;;;;3.60;1.80;;;;;;;25.87;43.50;99601.57;130912;1254;106674;-81
2024/04/09 11:53:18;;;;;;;2.50;1.60;;;;;;;25.84;43.48;99598.23;130986;1253;107735;-81
2024/04/09 11:56:24;;;;;;;2.20;1.60;;;;;;;25.84;43.26;99598.01;130966;1255;106676;-82
2024/04/09 11:59:29;;;;;;;2.80;1.70;;;;;;;25.83;43.12;99592.92;131054;1252;109244;-80
2024/04/09 12:02:34;;;;;;;3.60;1.70;;;;;;;25.80;43.02;99595.88;131237;1251;106556;-79
2024/04/09 12:05:40;;;;;;;2.90;1.70;;;;;;;25.75;42.56;99590.89;131114;1254;108708;-80
2024/04/09 12:08:45;;;;;;;2.40;1.80;;;;;;;25.73;42.67;99590.89;130875;1252;106657;-78
2024/04/09 12:11:51;;;;;;;2.70;1.60;;;;;;;25.72;42.73;99588.15;130888;1251;108533;-79
2024/04/09 12:14:56;;;;;;;2.80;1.60;;;;;;;25.71;42.81;99584.58;131084;1251;108693;-83
2024/04/09 12:18:02;;;;;;;2.60;1.80;;;;;;;25.69;42.70;99582.35;131091;1256;107575;-82
2024/04/09 12:21:08;;;;;;;3.80;1.90;;;;;;;25.67;42.35;99579.08;131309;1254;107755;-82
2024/04/09 12:24:14;;;;;;;4.40;1.70;;;;;;;25.60;42.08;99575.33;131082;1250;106677;-82
2024/04/09 12:27:19;;;;;;;3.30;1.80;;;;;;;25.57;42.37;99573.73;131385;1250;107262;-86
2024/04/09 12:30:24;;;;;;;2.70;1.80;;;;;;;25.56;42.27;99570.50;131432;1250;107625;-85
2024/04/09 12:33:30;;;;;;;4.10;1.90;;;;;;;25.56;42.45;99560.89;131770;1255;107805;-85
2024/04/09 12:36:35;;;;;;;3.80;1.60;;;;;;;25.55;42.74;99557.84;131469;1254;106882;-85
2024/04/09 12:39:40;;;;;;;4.70;1.70;;;;;;;25.54;42.26;99555.98;131404;1256;108366;-86
2024/04/09 12:42:46;;;;;;;4.10;1.80;;;;;;;25.54;42.27;99548.65;131211;1250;108517;-86
2024/04/09 12:45:52;;;;;;;3.40;1.80;;;;;;;25.57;41.91;99542.64;131129;1254;108476;-83
2024/04/09 12:48:57;;;;;;;3.20;1.90;;;;;;;25.66;41.45;99539.16;131195;1254;107987;-84
2024/04/09 14:44:24;;;;;;;2.60;1.70;;;;;;;26.31;36.90;99467.58;127777;1287;649174;-77
2024/04/09 14:47:30;;;;;;;3.80;1.90;;;;;;;26.29;36.48;99468.67;130277;1265;249731;-77
2024/04/09 14:50:35;;;;;;;3.10;1.60;;;;;;;26.23;36.35;99470.05;130159;1265;107831;-78
2024/04/09 14:53:40;;;;;;;4.50;1.60;;;;;;;26.19;36.47;99470.39;130258;1262;107077;-78
2024/04/09 14:56:46;;;;;;;3.40;1.90;;;;;;;26.15;35.95;99468.64;130068;1278;108589;-78
2024/04/09 14:59:52;;;;;;;3.60;1.50;;;;;;;26.11;36.10;99466.63;130308;1266;106991;-78
2024/04/09 15:02:57;;;;;;;2.90;1.60;;;;;;;26.04;36.32;99462.59;130206;1262;107809;-79
2024/04/09 15:06:02;;;;;;;2.20;1.40;;;;;;;26.01;36.35;99464.02;130032;1265;107762;-79
2024/04/09 15:09:10;;;;;;;2.90;1.70;;;;;;;25.97;36.27;99461.67;129909;1262;107800;-79
2024/04/09 15:12:16;;;;;;;4.00;1.60;;;;;;;25.93;36.17;99460.35;130332;1261;107794;-80
2024/04/09 15:15:21;;;;;;;2.30;1.50;;;;;;;25.90;36.24;99460.55;130933;1263;108627;-79
2024/04/09 15:18:27;;;;;;;2.30;1.50;;;;;;;25.85;36.23;99460.65;130531;1262;107861;-77
2024/04/09 15:21:32;;;;;;;3.00;1.60;;;;;;;25.83;36.34;99460.54;130112;1265;107674;-78
2024/04/09 15:24:38;;;;;;;3.90;1.70;;;;;;;25.79;36.43;99466.55;131048;1250;108360;-79
2024/04/09 15:27:45;;;;;;;3.20;1.40;;;;;;;25.74;36.23;99461.27;131031;1250;107800;-78
2024/04/09 15:30:54;;;;;;;4.80;1.90;;;;;;;25.69;36.28;99462.01;131383;1250;108665;-79
2024/04/09 15:33:59;;;;;;;3.10;1.60;;;;;;;25.63;36.26;99462.55;131243;1250;107746;-78
2024/04/09 15:37:05;;;;;;;4.00;1.70;;;;;;;25.58;36.09;99467.41;131125;1251;108671;-78
2024/04/09 15:40:15;;;;;;;4.70;1.50;;;;;;;25.54;36.01;99465.39;131003;1254;107583;-79
2024/04/09 15:43:23;;;;;;;2.70;1.50;;;;;;;25.45;36.27;99466.69;130921;1251;106387;-80
2024/04/09 15:46:28;;;;;;;4.40;1.60;;;;;;;25.34;36.31;99468.15;131276;1253;108565;-80
2024/04/09 15:49:34;;;;;;;3.40;1.70;;;;;;;25.24;36.23;99466.75;130924;1250;108039;-78
2024/04/09 15:52:41;;;;;;;4.10;1.60;;;;;;;25.16;36.40;99469.11;130868;1254;107109;-78
2024/04/09 15:55:47;;;;;;;4.90;1.60;;;;;;;25.05;36.47;99470.44;130917;1254;107425;-78
2024/04/09 15:58:53;;;;;;;3.60;1.80;;;;;;;24.94;36.76;99469.90;130925;1254;107741;-76
2024/04/09 16:02:06;;;;;;;2.50;1.60;;;;;;;24.85;36.87;99470.53;130979;1253;108016;-78
2024/04/09 16:05:16;;;;;;;2.70;1.70;;;;;;;24.74;37.04;99472.99;131095;1250;107640;-77
2024/04/09 16:08:21;;;;;;;4.40;2.00;;;;;;;24.63;37.28;99473.64;130940;1254;108073;-78